createdAt,value
2023-05-18T00:00:55.596Z,14.25
2023-05-18T00:03:28.560Z,14.26
2023-05-18T00:06:04.622Z,14.19
2023-05-18T00:08:38.595Z,14.15
2023-05-18T00:11:12.798Z,14.13
2023-05-18T00:13:45.720Z,14.08
2023-05-18T00:16:18.555Z,13.96
2023-05-18T00:18:54.685Z,14.06
2023-05-18T00:21:30.676Z,13.96
2023-05-18T00:24:03.547Z,13.98
2023-05-18T00:26:38.204Z,13.90
2023-05-18T00:29:11.975Z,13.83
2023-05-18T00:31:47.115Z,13.77
2023-05-18T00:34:19.977Z,13.72
2023-05-18T00:36:52.711Z,13.76
2023-05-18T00:39:25.673Z,13.56
2023-05-18T00:42:00.149Z,13.72
2023-05-18T00:44:32.987Z,13.75
2023-05-18T00:47:05.767Z,13.73
2023-05-18T00:49:39.669Z,13.73
2023-05-18T00:52:12.631Z,13.75
2023-05-18T00:54:46.074Z,13.73
2023-05-18T00:57:20.404Z,13.68
2023-05-18T00:59:53.311Z,13.65
2023-05-18T01:02:30.102Z,13.71
2023-05-18T01:05:03.559Z,13.60
2023-05-18T01:07:38.767Z,13.56
2023-05-18T01:10:13.184Z,13.59
2023-05-18T01:12:52.028Z,13.60
2023-05-18T01:15:32.996Z,13.55
2023-05-18T01:18:15.288Z,13.58
2023-05-18T01:20:50.729Z,13.61
2023-05-18T01:24:03.473Z,13.62
2023-05-18T01:26:41.923Z,13.61
2023-05-18T01:29:16.476Z,13.49
2023-05-18T01:31:49.359Z,13.50
2023-05-18T01:34:22.212Z,13.52
2023-05-18T01:36:55.275Z,13.50
2023-05-18T01:39:28.223Z,13.43
2023-05-18T01:42:11.415Z,13.40
2023-05-18T01:44:48.893Z,13.41
2023-05-18T01:47:21.678Z,13.39
2023-05-18T01:50:01.239Z,13.42
2023-05-18T01:52:43.991Z,13.34
2023-05-18T01:55:20.531Z,13.34
2023-05-18T01:57:55.751Z,13.26
2023-05-18T02:00:28.721Z,13.27
2023-05-18T02:03:01.582Z,13.20
2023-05-18T02:05:34.686Z,13.21
2023-05-18T02:08:08.122Z,13.16
2023-05-18T02:10:41.187Z,13.17
2023-05-18T02:13:15.507Z,13.12
2023-05-18T02:15:48.895Z,13.12
2023-05-18T02:18:22.566Z,13.06
2023-05-18T02:26:50.471Z,13.07
2023-05-18T02:29:27.238Z,13.07
2023-05-18T02:32:00.854Z,13.04
2023-05-18T02:34:35.746Z,12.96
2023-05-18T02:37:08.677Z,12.92
2023-05-18T02:39:41.381Z,12.95
2023-05-18T02:42:14.290Z,12.92
2023-05-18T02:44:48.502Z,12.93
2023-05-18T02:47:22.879Z,12.90
2023-05-18T02:49:56.460Z,12.86
2023-05-18T02:52:29.375Z,12.81
2023-05-18T02:55:02.259Z,12.82
2023-05-18T02:57:57.449Z,12.79
2023-05-18T03:00:46.720Z,12.80
2023-05-18T03:06:23.351Z,12.71
2023-05-18T03:08:56.623Z,12.75
2023-05-18T03:11:37.596Z,12.71
2023-05-18T03:14:10.672Z,12.65
2023-05-18T03:16:45.280Z,12.62
2023-05-18T03:19:20.949Z,12.62
2023-05-18T03:21:53.823Z,12.65
2023-05-18T03:24:30.428Z,12.59
2023-05-18T03:27:05.470Z,12.58
2023-05-18T03:29:38.327Z,12.61
2023-05-18T03:32:12.679Z,12.57
2023-05-18T03:34:47.631Z,12.59
2023-05-18T03:37:21.151Z,12.53
2023-05-18T03:39:54.143Z,12.51
2023-05-18T03:42:27.062Z,12.53
2023-05-18T03:45:00.188Z,12.49
2023-05-18T03:47:34.506Z,12.47
2023-05-18T03:50:10.328Z,12.42
2023-05-18T03:52:44.436Z,12.51
2023-05-18T03:55:17.393Z,12.45
2023-05-18T03:57:50.139Z,12.41
2023-05-18T04:00:25.243Z,12.37
2023-05-18T04:02:59.467Z,12.30
2023-05-18T04:05:32.911Z,12.32
2023-05-18T04:08:08.866Z,12.32
2023-05-18T04:10:43.200Z,12.39
2023-05-18T04:13:16.547Z,12.30
2023-05-18T04:15:49.561Z,12.33
2023-05-18T04:18:23.931Z,12.29
2023-05-18T04:20:57.217Z,12.35
2023-05-18T04:23:33.484Z,12.24
2023-05-18T04:26:07.159Z,12.29
2023-05-18T04:28:39.805Z,12.36
2023-05-18T04:31:14.503Z,12.32
2023-05-18T04:33:51.377Z,12.28
2023-05-18T04:36:25.814Z,12.33
2023-05-18T04:39:01.856Z,12.33
2023-05-18T04:41:35.294Z,12.22
2023-05-18T04:44:09.563Z,12.23
2023-05-18T04:46:42.437Z,12.26
2023-05-18T04:49:17.065Z,12.23
2023-05-18T04:51:55.625Z,12.28
2023-05-18T04:54:30.915Z,12.32
2023-05-18T04:57:04.177Z,12.37
2023-05-18T04:59:37.321Z,12.41
2023-05-18T05:02:11.196Z,12.36
2023-05-18T05:04:45.912Z,12.32
2023-05-18T05:07:18.737Z,12.39
2023-05-18T05:09:55.210Z,12.41
2023-05-18T05:12:28.153Z,12.45
2023-05-18T05:15:00.998Z,12.42
2023-05-18T05:17:33.820Z,12.42
2023-05-18T05:20:09.467Z,12.30
2023-05-18T05:22:42.919Z,12.33
2023-05-18T05:25:18.101Z,12.40
2023-05-18T05:27:50.802Z,12.37
2023-05-18T05:30:26.244Z,12.36
2023-05-18T05:32:59.888Z,12.36
2023-05-18T05:35:35.756Z,12.39
2023-05-18T05:38:09.022Z,12.34
2023-05-18T05:40:41.969Z,12.39
2023-05-18T05:43:15.085Z,12.34
2023-05-18T05:45:48.876Z,12.40
2023-05-18T05:48:22.827Z,12.45
2023-05-18T05:50:57.014Z,12.41
2023-05-18T05:53:30.130Z,12.42
2023-05-18T05:56:02.870Z,12.45
2023-05-18T05:58:37.412Z,12.51
2023-05-18T06:01:10.301Z,12.47
2023-05-18T06:03:45.227Z,12.48
2023-05-18T06:06:20.233Z,12.46
2023-05-18T06:08:53.049Z,12.45
2023-05-18T06:11:26.693Z,12.51
2023-05-18T06:14:00.207Z,12.51
2023-05-18T06:16:33.373Z,12.52
2023-05-18T06:19:08.206Z,12.51
2023-05-18T06:21:42.588Z,12.59
2023-05-18T06:24:16.014Z,12.63
2023-05-18T06:27:16.901Z,12.63
2023-05-18T06:29:57.372Z,12.75
2023-05-18T06:32:44.082Z,12.72
2023-05-18T06:35:17.197Z,12.81
2023-05-18T06:37:51.725Z,12.88
2023-05-18T06:40:24.767Z,12.98
2023-05-18T06:42:57.530Z,13.09
2023-05-18T06:45:35.231Z,13.36
2023-05-18T06:48:43.766Z,13.59
2023-05-18T06:51:23.561Z,13.81
2023-05-18T06:54:05.344Z,13.95
2023-05-18T06:56:38.516Z,14.03
2023-05-18T06:59:15.003Z,14.10
2023-05-18T07:02:04.831Z,14.18
2023-05-18T07:04:41.790Z,14.24
2023-05-18T07:07:22.318Z,14.31
2023-05-18T07:10:07.383Z,14.45
2023-05-18T07:12:40.249Z,14.54
2023-05-18T07:15:21.011Z,14.64
2023-05-18T07:17:54.096Z,14.67
2023-05-18T07:20:27.278Z,14.86
2023-05-18T07:23:04.207Z,15.01
2023-05-18T07:25:43.186Z,15.22
2023-05-18T07:28:25.304Z,15.46
2023-05-18T07:31:00.016Z,15.64
2023-05-18T07:33:33.062Z,15.80
2023-05-18T07:36:11.394Z,15.93
2023-05-18T07:38:44.264Z,16.04
2023-05-18T07:41:18.876Z,16.14
2023-05-18T07:43:52.817Z,16.23
2023-05-18T07:46:26.066Z,16.30
2023-05-18T07:48:59.446Z,16.45
2023-05-18T07:51:32.740Z,16.47
2023-05-18T07:54:06.259Z,16.54
2023-05-18T07:56:40.820Z,16.63
2023-05-18T07:59:16.127Z,16.68
2023-05-18T08:01:50.280Z,16.71
2023-05-18T08:04:23.184Z,16.74
2023-05-18T08:07:00.045Z,16.89
2023-05-18T08:09:33.112Z,17.09
2023-05-18T08:12:08.092Z,17.09
2023-05-18T08:14:41.057Z,16.50
2023-05-18T08:17:14.086Z,16.24
2023-05-18T08:19:47.530Z,17.19
2023-05-18T08:22:20.869Z,16.70
2023-05-18T08:24:54.806Z,16.18
2023-05-18T08:27:29.490Z,15.99
2023-05-18T08:30:02.520Z,15.90
2023-05-18T08:32:39.589Z,16.27
2023-05-18T08:35:12.908Z,17.35
2023-05-18T08:37:47.017Z,17.02
2023-05-18T08:40:20.097Z,17.07
2023-05-18T08:43:04.593Z,17.31
2023-05-18T08:45:42.528Z,18.00
2023-05-18T08:48:17.634Z,17.27
2023-05-18T08:50:54.094Z,17.29
2023-05-18T08:53:27.312Z,18.17
2023-05-18T08:56:01.075Z,18.74
2023-05-18T08:58:37.702Z,18.05
2023-05-18T09:01:11.433Z,18.89
2023-05-18T09:03:45.596Z,18.38
2023-05-18T09:06:19.670Z,18.97
2023-05-18T09:08:54.244Z,19.57
2023-05-18T09:11:28.808Z,19.72
2023-05-18T09:14:05.916Z,19.91
2023-05-18T09:16:39.097Z,20.04
2023-05-18T09:19:21.332Z,20.09
2023-05-18T09:21:54.413Z,20.12
2023-05-18T09:24:28.024Z,20.45
2023-05-18T09:27:01.175Z,20.45
2023-05-18T09:29:35.558Z,20.03
2023-05-18T09:32:11.694Z,19.96
2023-05-18T09:34:45.556Z,19.73
2023-05-18T09:37:18.702Z,20.06
2023-05-18T09:40:02.433Z,20.40
2023-05-18T09:42:39.173Z,21.18
2023-05-18T09:45:19.369Z,20.94
2023-05-18T09:47:52.691Z,21.19
2023-05-18T09:50:26.563Z,20.62
2023-05-18T09:53:01.086Z,20.60
2023-05-18T09:55:34.261Z,21.03
2023-05-18T09:58:09.026Z,21.55
2023-05-18T10:00:45.202Z,21.15
2023-05-18T10:03:19.302Z,21.72
2023-05-18T10:05:52.693Z,21.72
2023-05-18T10:08:25.549Z,21.43
2023-05-18T10:10:58.554Z,22.06
2023-05-18T10:13:32.558Z,21.49
2023-05-18T10:16:09.099Z,21.34
2023-05-18T10:18:42.699Z,21.76
2023-05-18T10:21:17.924Z,21.37
2023-05-18T10:23:52.121Z,21.59
2023-05-18T10:26:29.214Z,21.43
2023-05-18T10:29:02.658Z,21.28
2023-05-18T10:31:39.833Z,19.47
2023-05-18T10:34:13.023Z,21.94
2023-05-18T10:36:45.953Z,23.17
2023-05-18T10:39:19.536Z,22.89
2023-05-18T10:41:52.605Z,22.79
2023-05-18T10:44:26.079Z,23.25
2023-05-18T10:47:00.491Z,22.82
2023-05-18T10:49:36.352Z,21.58
2023-05-18T10:52:12.909Z,22.36
2023-05-18T10:54:47.780Z,22.22
2023-05-18T10:57:21.920Z,22.68
2023-05-18T10:59:54.859Z,22.71
2023-05-18T11:02:29.563Z,22.85
2023-05-18T11:05:06.641Z,23.43
2023-05-18T11:07:41.722Z,22.42
2023-05-18T11:10:15.611Z,22.98
2023-05-18T11:12:49.221Z,23.53
2023-05-18T11:15:24.349Z,23.49
2023-05-18T11:18:21.700Z,22.82
2023-05-18T11:20:54.742Z,23.23
2023-05-18T11:23:27.809Z,23.66
2023-05-18T11:26:04.894Z,22.41
2023-05-18T11:28:44.309Z,23.40
2023-05-18T11:31:19.905Z,22.83
2023-05-18T11:33:54.450Z,24.21
2023-05-18T11:36:28.924Z,23.92
2023-05-18T11:39:11.415Z,24.78
2023-05-18T11:41:47.004Z,23.86
2023-05-18T11:44:24.484Z,24.04
2023-05-18T11:47:02.815Z,24.01
2023-05-18T11:49:44.545Z,24.71
2023-05-18T11:52:20.724Z,23.55
2023-05-18T11:54:58.656Z,23.97
2023-05-18T11:57:42.744Z,25.48
2023-05-18T12:00:17.480Z,25.86
2023-05-18T12:02:53.069Z,24.62
2023-05-18T12:05:36.817Z,24.99
2023-05-18T12:08:10.408Z,25.15
2023-05-18T12:10:43.528Z,25.65
2023-05-18T12:13:21.243Z,25.49
2023-05-18T12:15:58.715Z,25.68
2023-05-18T12:18:35.166Z,24.87
2023-05-18T12:21:11.690Z,25.50
2023-05-18T12:23:45.402Z,25.13
2023-05-18T12:26:20.534Z,25.27
2023-05-18T12:28:54.818Z,25.51
2023-05-18T12:31:37.176Z,25.81
2023-05-18T12:34:22.153Z,25.45
2023-05-18T12:37:01.405Z,25.83
2023-05-18T12:39:44.743Z,25.64
2023-05-18T12:42:20.530Z,25.89
2023-05-18T12:44:59.239Z,25.38
2023-05-18T12:47:44.714Z,25.80
2023-05-18T12:50:23.995Z,25.54
2023-05-18T12:53:04.476Z,25.60
2023-05-18T12:55:41.836Z,24.51
2023-05-18T12:58:19.502Z,25.27
2023-05-18T13:00:55.301Z,25.22
2023-05-18T13:03:35.172Z,25.66
2023-05-18T13:09:00.184Z,26.33
2023-05-18T13:11:39.743Z,25.51
2023-05-18T13:14:24.547Z,25.83
2023-05-18T13:16:57.854Z,26.09
2023-05-18T13:19:34.561Z,25.56
2023-05-18T13:22:08.401Z,26.36
2023-05-18T13:24:42.877Z,25.93
2023-05-18T13:27:15.904Z,26.11
2023-05-18T13:29:51.313Z,26.12
2023-05-18T13:32:24.228Z,26.41
2023-05-18T13:34:57.227Z,26.53
2023-05-18T13:37:30.575Z,25.80
2023-05-18T13:40:07.603Z,25.70
2023-05-18T13:42:43.914Z,25.84
2023-05-18T13:45:16.994Z,26.65
2023-05-18T13:47:51.781Z,25.84
2023-05-18T13:50:26.586Z,24.93
2023-05-18T13:53:01.210Z,26.53
2023-05-18T13:55:35.848Z,25.70
2023-05-18T13:58:08.959Z,25.94
2023-05-18T14:00:41.892Z,27.20
2023-05-18T14:03:17.702Z,27.07
2023-05-18T14:05:51.998Z,27.55
2023-05-18T14:08:24.898Z,26.59
2023-05-18T14:10:58.870Z,27.15
2023-05-18T14:13:31.707Z,27.64
2023-05-18T14:16:04.736Z,27.45
2023-05-18T14:18:37.980Z,26.75
2023-05-18T14:21:11.098Z,27.22
2023-05-18T14:23:44.254Z,27.49
2023-05-18T14:26:18.691Z,27.81
2023-05-18T14:28:54.977Z,27.34
2023-05-18T14:31:30.554Z,26.92
2023-05-18T14:34:03.461Z,27.24
2023-05-18T14:36:38.785Z,27.45
2023-05-18T14:39:11.742Z,26.91
2023-05-18T14:41:46.169Z,25.65
2023-05-18T14:44:19.109Z,26.63
2023-05-18T14:46:54.460Z,27.52
2023-05-18T14:49:35.781Z,27.53
2023-05-18T14:52:09.193Z,27.30
2023-05-18T14:54:42.519Z,27.35
2023-05-18T14:57:17.250Z,27.32
2023-05-18T14:59:52.521Z,27.04
2023-05-18T15:02:25.483Z,27.45
2023-05-18T15:04:58.591Z,26.43
2023-05-18T15:07:32.452Z,26.34
2023-05-18T15:10:06.364Z,27.15
2023-05-18T15:12:40.790Z,27.61
2023-05-18T15:15:13.963Z,27.67
2023-05-18T15:17:46.947Z,27.70
2023-05-18T15:20:20.031Z,27.48
2023-05-18T15:22:53.250Z,27.85
2023-05-18T15:25:26.370Z,26.95
2023-05-18T15:28:00.588Z,26.02
2023-05-18T15:30:36.517Z,26.37
2023-05-18T15:33:09.728Z,27.00
2023-05-18T15:35:45.379Z,26.83
2023-05-18T15:38:20.158Z,26.16
2023-05-18T15:40:53.540Z,27.11
2023-05-18T15:43:29.774Z,26.79
2023-05-18T15:46:02.889Z,26.48
2023-05-18T15:48:37.756Z,26.08
2023-05-18T15:51:11.255Z,26.03
2023-05-18T15:53:44.469Z,26.02
2023-05-18T15:56:18.358Z,26.11
2023-05-18T15:58:52.922Z,26.57
2023-05-18T16:01:26.003Z,27.09
2023-05-18T16:03:59.865Z,26.36
2023-05-18T16:06:38.712Z,25.12
2023-05-18T16:09:12.425Z,25.99
2023-05-18T16:11:45.400Z,26.05
2023-05-18T16:14:20.432Z,25.96
2023-05-18T16:17:09.429Z,24.59
2023-05-18T16:19:42.631Z,25.33
2023-05-18T16:22:17.812Z,25.55
2023-05-18T16:24:53.192Z,25.33
2023-05-18T16:27:26.346Z,25.30
2023-05-18T16:30:04.501Z,25.30
2023-05-18T16:32:37.822Z,25.55
2023-05-18T16:35:11.174Z,25.24
2023-05-18T16:37:48.596Z,24.85
2023-05-18T16:40:27.009Z,25.24
2023-05-18T16:43:00.146Z,24.94
2023-05-18T16:45:35.241Z,24.87
2023-05-18T16:48:08.780Z,24.68
2023-05-18T16:50:47.514Z,23.49
2023-05-18T16:53:20.718Z,24.08
2023-05-18T16:55:56.176Z,23.87
2023-05-18T16:58:29.274Z,24.15
2023-05-18T17:01:09.817Z,23.53
2023-05-18T17:03:56.154Z,23.88
2023-05-18T17:06:30.026Z,23.84
2023-05-18T17:09:06.138Z,23.80
2023-05-18T17:11:39.658Z,23.07
2023-05-18T17:14:12.874Z,23.27
2023-05-18T17:16:53.003Z,22.80
2023-05-18T17:19:26.224Z,21.95
2023-05-18T17:22:01.327Z,22.82
2023-05-18T17:24:34.463Z,22.96
2023-05-18T17:27:07.805Z,22.84
2023-05-18T17:29:44.179Z,22.90
2023-05-18T17:32:20.392Z,21.90
2023-05-18T17:34:56.328Z,22.22
2023-05-18T17:37:29.543Z,21.67
2023-05-18T17:40:03.150Z,21.55
2023-05-18T17:42:36.705Z,22.17
2023-05-18T17:45:11.471Z,22.33
2023-05-18T17:47:46.395Z,22.42
2023-05-18T17:50:19.350Z,22.39
2023-05-18T17:52:52.064Z,22.40
2023-05-18T17:55:25.217Z,22.45
2023-05-18T17:57:59.661Z,22.39
2023-05-18T18:00:32.962Z,22.30
2023-05-18T18:03:07.543Z,22.23
2023-05-18T18:05:40.628Z,22.15
2023-05-18T18:08:14.872Z,22.10
2023-05-18T18:10:47.764Z,22.04
2023-05-18T18:13:20.472Z,21.99
2023-05-18T18:15:53.361Z,22.00
2023-05-18T18:18:30.054Z,21.96
2023-05-18T18:21:03.056Z,21.92
2023-05-18T18:23:36.716Z,21.78
2023-05-18T18:26:09.543Z,21.72
2023-05-18T18:28:42.821Z,21.70
2023-05-18T18:31:16.189Z,21.69
2023-05-18T18:33:51.389Z,21.66
2023-05-18T18:36:26.295Z,21.58
2023-05-18T18:38:59.658Z,21.47
2023-05-18T18:41:33.266Z,21.47
2023-05-18T18:44:09.829Z,21.34
2023-05-18T18:46:42.901Z,21.29
2023-05-18T18:49:17.054Z,21.23
2023-05-18T18:51:50.853Z,21.24
2023-05-18T18:54:23.789Z,21.13
2023-05-18T18:56:56.639Z,21.11
2023-05-18T18:59:29.676Z,21.01
2023-05-18T19:02:02.760Z,20.94
2023-05-18T19:04:37.468Z,20.95
2023-05-18T19:07:10.399Z,20.89
2023-05-18T19:09:46.582Z,20.85
2023-05-18T19:12:20.150Z,20.75
2023-05-18T19:14:53.314Z,20.69
2023-05-18T19:17:26.779Z,20.63
2023-05-18T19:20:02.741Z,20.57
2023-05-18T19:22:37.541Z,20.45
2023-05-18T19:25:10.896Z,20.43
2023-05-18T19:27:43.779Z,20.37
2023-05-18T19:30:21.040Z,20.37
2023-05-18T19:32:54.673Z,20.37
2023-05-18T19:35:29.081Z,20.25
2023-05-18T19:38:02.570Z,20.19
2023-05-18T19:40:35.749Z,20.15
2023-05-18T19:43:08.767Z,20.09
2023-05-18T19:45:41.676Z,20.00
2023-05-18T19:48:14.474Z,19.95
2023-05-18T19:50:49.767Z,19.93
2023-05-18T19:53:23.089Z,19.86
2023-05-18T19:55:55.984Z,19.78
2023-05-18T19:58:28.655Z,19.74
2023-05-18T20:01:01.472Z,19.68
2023-05-18T20:03:34.566Z,19.63
2023-05-18T20:06:08.823Z,19.53
2023-05-18T20:08:43.130Z,19.50
2023-05-18T20:11:16.107Z,19.45
2023-05-18T20:13:48.690Z,19.41
2023-05-18T20:16:21.568Z,19.42
2023-05-18T20:18:54.492Z,19.33
2023-05-18T20:21:28.580Z,19.28
2023-05-18T20:24:01.397Z,19.30
2023-05-18T20:26:34.183Z,19.24
2023-05-18T20:29:07.627Z,19.14
2023-05-18T20:31:40.699Z,19.11
2023-05-18T20:34:13.787Z,19.03
2023-05-18T20:36:47.981Z,18.98
2023-05-18T20:39:20.919Z,18.93
2023-05-18T20:41:53.954Z,18.84
2023-05-18T20:44:28.994Z,18.78
2023-05-18T20:47:02.711Z,18.73
2023-05-18T20:49:35.500Z,18.70
2023-05-18T20:52:09.783Z,18.66
2023-05-18T20:54:42.703Z,18.62
2023-05-18T20:57:15.554Z,18.56
2023-05-18T20:59:48.192Z,18.55
2023-05-18T21:02:21.349Z,18.53
2023-05-18T21:04:57.781Z,18.43
2023-05-18T21:07:33.265Z,18.39
2023-05-18T21:10:07.594Z,18.39
2023-05-18T21:12:40.859Z,18.38
2023-05-18T21:15:13.926Z,18.30
2023-05-18T21:17:48.156Z,18.33
2023-05-18T21:20:21.044Z,18.28
2023-05-18T21:22:55.249Z,18.12
2023-05-18T21:25:28.310Z,18.09
2023-05-18T21:28:01.253Z,18.09
2023-05-18T21:30:34.064Z,18.08
2023-05-18T21:33:07.959Z,17.97
2023-05-18T21:35:40.917Z,17.89
2023-05-18T21:38:15.904Z,17.88
2023-05-18T21:40:48.724Z,17.88
2023-05-18T21:43:21.771Z,17.81
2023-05-18T21:45:54.537Z,17.62
2023-05-18T21:48:27.462Z,17.60
2023-05-18T21:51:00.515Z,17.63
2023-05-18T21:53:34.764Z,17.44
2023-05-18T21:56:07.887Z,17.48
2023-05-18T21:58:40.728Z,17.42
2023-05-18T22:01:13.542Z,17.43
2023-05-18T22:03:46.622Z,17.36
2023-05-18T22:06:22.128Z,17.29
2023-05-18T22:08:56.355Z,17.28
2023-05-18T22:11:29.330Z,17.19
2023-05-18T22:14:02.186Z,17.19
2023-05-18T22:16:35.067Z,17.20
2023-05-18T22:19:08.354Z,17.16
2023-05-18T22:21:41.842Z,17.06
2023-05-18T22:24:16.850Z,16.98
2023-05-18T22:26:49.889Z,16.91
2023-05-18T22:29:22.910Z,16.93
2023-05-18T22:31:55.855Z,16.96
2023-05-18T22:34:28.500Z,16.90
2023-05-18T22:37:01.374Z,16.89
2023-05-18T22:39:35.642Z,16.65
2023-05-18T22:42:08.494Z,16.67
2023-05-18T22:44:41.249Z,16.68
2023-05-18T22:47:19.534Z,16.74
2023-05-18T22:49:52.694Z,16.74
2023-05-18T22:52:26.577Z,16.70
2023-05-18T22:55:01.097Z,16.71
2023-05-18T22:57:33.846Z,16.75
2023-05-18T23:00:09.184Z,16.66
2023-05-18T23:02:43.140Z,16.57
2023-05-18T23:05:17.206Z,16.55
2023-05-18T23:07:52.175Z,16.52
2023-05-18T23:10:27.278Z,16.48
2023-05-18T23:13:00.376Z,16.47
2023-05-18T23:15:33.225Z,16.46
2023-05-18T23:18:09.438Z,16.39
2023-05-18T23:20:42.730Z,16.46
2023-05-18T23:23:15.479Z,16.46
2023-05-18T23:25:50.955Z,16.39
2023-05-18T23:28:24.533Z,16.37
2023-05-18T23:30:57.298Z,16.35
2023-05-18T23:33:32.121Z,16.32
2023-05-18T23:36:06.469Z,16.23
2023-05-18T23:38:41.758Z,16.20
2023-05-18T23:41:17.174Z,16.10
2023-05-18T23:43:50.873Z,16.07
2023-05-18T23:46:24.780Z,16.05
2023-05-18T23:48:59.619Z,16.04
2023-05-18T23:51:36.335Z,16.02
2023-05-18T23:54:09.816Z,16.04
2023-05-18T23:56:44.454Z,16.00
2023-05-18T23:59:17.799Z,16.02
